Time;durP1;ratioP1;P1;durP2;ratioP2;P2;SDS_P1;SDS_P2;PMS_P1;PMS_P2;Temp;Humidity;BMP_temperature;BMP_pressure;BME280_temperature;BME280_humidity;BME280_pressure;Samples;Min_cycle;Max_cycle;Signal;HPM_P1;HPM_P2
2023/10/28 00:01:40;;;;;;;10.20;5.60;;;;;;;;;;103737;1289;544749;-76
2023/10/28 00:05:15;;;;;;;10.00;6.40;;;;;;;;;;103788;1291;545189;-77
2023/10/28 00:08:53;;;;;;;10.30;6.20;;;;;;;;;;103657;1296;545714;-76
2023/10/28 00:12:30;;;;;;;10.30;6.20;;;;;;;;;;103776;1289;545233;-77
2023/10/28 00:16:08;;;;;;;9.50;5.70;;;;;;;;;;103769;1288;545861;-77
2023/10/28 00:19:46;;;;;;;9.30;5.50;;;;;;;;;;103812;1288;544756;-77
2023/10/28 00:23:31;;;;;;;9.00;5.40;;;;;;;;;;103721;1288;548030;-77
2023/10/28 00:27:00;;;;;;;8.50;5.30;;;;;;;;;;104086;1287;546457;-78
2023/10/28 00:30:38;;;;;;;10.10;6.10;;;;;;;;;;103721;1290;545086;-78
2023/10/28 00:34:15;;;;;;;9.70;5.40;;;;;;;;;;103804;1295;545321;-77
2023/10/28 00:37:49;;;;;;;8.80;5.00;;;;;;;;;;103866;1293;544802;-77
2023/10/28 00:41:32;;;;;;;8.50;4.90;;;;;;;;;;103819;1289;544997;-77
2023/10/28 00:45:11;;;;;;;10.40;5.80;;;;;;;;;;104136;1291;544786;-77
2023/10/28 00:48:45;;;;;;;13.70;9.00;;;;;;;;;;103755;1289;544988;-77
2023/10/28 00:52:23;;;;;;;12.10;8.00;;;;;;;;;;104147;1285;545005;-77
2023/10/28 00:56:01;;;;;;;10.60;6.20;;;;;;;;;;103728;1291;544953;-77
2023/10/28 00:59:38;;;;;;;11.00;6.10;;;;;;;;;;103696;1290;545023;-77
2023/10/28 01:03:20;;;;;;;11.70;6.80;;;;;;;;;;103383;1295;548605;-77
2023/10/28 01:06:52;;;;;;;12.30;7.10;;;;;;;;;;103747;1291;545493;-77
2023/10/28 01:10:31;;;;;;;11.30;6.20;;;;;;;;;;103569;1291;545395;-77
2023/10/28 01:14:07;;;;;;;10.40;6.30;;;;;;;;;;103844;1289;545107;-77
2023/10/28 01:17:50;;;;;;;10.10;6.00;;;;;;;;;;103679;1296;548198;-77
2023/10/28 01:21:23;;;;;;;9.90;6.00;;;;;;;;;;103900;1288;544827;-77
2023/10/28 01:25:06;;;;;;;9.90;5.80;;;;;;;;;;103295;1299;548005;-77
2023/10/28 01:28:37;;;;;;;8.30;5.30;;;;;;;;;;103738;1291;545223;-77
2023/10/28 01:32:15;;;;;;;8.60;4.90;;;;;;;;;;103752;1292;545016;-77
2023/10/28 01:35:52;;;;;;;8.30;4.80;;;;;;;;;;103889;1288;545757;-77
2023/10/28 01:39:30;;;;;;;8.50;4.90;;;;;;;;;;103838;1289;544815;-79
2023/10/28 01:43:07;;;;;;;8.90;5.00;;;;;;;;;;103950;1288;545325;-77
2023/10/28 01:46:44;;;;;;;9.00;5.20;;;;;;;;;;103848;1289;544805;-77
2023/10/28 01:50:22;;;;;;;7.70;4.30;;;;;;;;;;103737;1292;545271;-77
2023/10/28 01:54:05;;;;;;;8.00;3.90;;;;;;;;;;103892;1289;547907;-77
2023/10/28 01:57:37;;;;;;;7.80;3.90;;;;;;;;;;103822;1301;546047;-77
2023/10/28 02:01:20;;;;;;;7.20;3.70;;;;;;;;;;103419;1294;548002;-78
2023/10/28 02:04:52;;;;;;;7.50;3.50;;;;;;;;;;103800;1298;544726;-77
2023/10/28 02:08:35;;;;;;;5.30;2.50;;;;;;;;;;103709;1292;548313;-78
2023/10/28 02:12:08;;;;;;;7.20;2.40;;;;;;;;;;103771;1289;544778;-77
2023/10/28 02:15:48;;;;;;;7.40;2.20;;;;;;;;;;103822;1289;544795;-77
2023/10/28 02:19:21;;;;;;;4.90;2.30;;;;;;;;;;103903;1288;546069;-78
2023/10/28 02:22:59;;;;;;;4.90;2.00;;;;;;;;;;103726;1289;544792;-77
2023/10/28 02:26:37;;;;;;;5.20;2.00;;;;;;;;;;103921;1288;545823;-77
2023/10/28 02:30:14;;;;;;;5.20;1.70;;;;;;;;;;104093;1286;544807;-77
2023/10/28 02:33:51;;;;;;;3.70;1.50;;;;;;;;;;103969;1288;544755;-78
2023/10/28 02:37:29;;;;;;;3.90;1.50;;;;;;;;;;103838;1294;545517;-77
2023/10/28 02:41:06;;;;;;;3.80;1.30;;;;;;;;;;104136;1289;545865;-76
2023/10/28 02:44:43;;;;;;;2.80;1.00;;;;;;;;;;103762;1292;545601;-77
2023/10/28 02:48:21;;;;;;;4.50;1.50;;;;;;;;;;104107;1289;545531;-77
2023/10/28 02:51:58;;;;;;;5.10;1.80;;;;;;;;;;103806;1292;544850;-76
2023/10/28 02:55:42;;;;;;;5.20;1.80;;;;;;;;;;103675;1289;547830;-77
2023/10/28 02:59:14;;;;;;;6.00;2.00;;;;;;;;;;103876;1291;544757;-76
2023/10/28 03:02:52;;;;;;;4.00;1.30;;;;;;;;;;103660;1291;545626;-77
2023/10/28 03:06:28;;;;;;;4.10;1.30;;;;;;;;;;103797;1290;545021;-79
2023/10/28 03:10:06;;;;;;;4.60;1.70;;;;;;;;;;104051;1286;545960;-79
2023/10/28 03:13:49;;;;;;;4.60;1.70;;;;;;;;;;103547;1292;547924;-77
2023/10/28 03:17:21;;;;;;;5.00;1.70;;;;;;;;;;104632;1283;545514;-77
2023/10/28 03:20:59;;;;;;;6.60;2.00;;;;;;;;;;104134;1286;546014;-77
2023/10/28 03:24:36;;;;;;;6.20;2.30;;;;;;;;;;103711;1292;544870;-77
2023/10/28 03:28:13;;;;;;;5.80;2.40;;;;;;;;;;103766;1291;545522;-77
2023/10/28 03:31:47;;;;;;;7.10;3.10;;;;;;;;;;103969;1288;545033;-77
2023/10/28 03:35:28;;;;;;;7.60;2.80;;;;;;;;;;103541;1295;545950;-77
2023/10/28 03:39:07;;;;;;;6.00;2.30;;;;;;;;;;103764;1292;545882;-76
2023/10/28 03:42:43;;;;;;;6.40;2.50;;;;;;;;;;103833;1289;544753;-77
2023/10/28 03:46:26;;;;;;;6.00;2.60;;;;;;;;;;103661;1291;547983;-77
2023/10/28 03:49:58;;;;;;;6.60;2.60;;;;;;;;;;103803;1290;545278;-77
2023/10/28 03:53:36;;;;;;;7.00;2.90;;;;;;;;;;103889;1288;544808;-77
2023/10/28 03:57:13;;;;;;;5.70;2.70;;;;;;;;;;103789;1291;545056;-77
2023/10/28 04:00:53;;;;;;;7.80;3.50;;;;;;;;;;103944;1289;545106;-77
2023/10/28 04:04:34;;;;;;;8.70;4.00;;;;;;;;;;103661;1290;547815;-77
2023/10/28 04:08:06;;;;;;;8.70;4.20;;;;;;;;;;104211;1289;544775;-77
2023/10/28 04:11:44;;;;;;;8.00;4.70;;;;;;;;;;103965;1288;545101;-77
2023/10/28 04:15:21;;;;;;;7.10;3.50;;;;;;;;;;103499;1294;545539;-77
2023/10/28 04:18:58;;;;;;;5.50;2.60;;;;;;;;;;103963;1289;545020;-77
2023/10/28 04:22:41;;;;;;;5.30;2.10;;;;;;;;;;103859;1289;546371;-77
2023/10/28 04:26:12;;;;;;;4.20;2.10;;;;;;;;;;103726;1290;545998;-77
2023/10/28 04:29:46;;;;;;;4.00;2.00;;;;;;;;;;103861;1289;545050;-77
2023/10/28 04:33:30;;;;;;;4.60;1.70;;;;;;;;;;103795;1292;545529;-77
2023/10/28 04:37:07;;;;;;;4.80;1.80;;;;;;;;;;103978;1288;545119;-77
2023/10/28 04:40:41;;;;;;;4.30;1.80;;;;;;;;;;103925;1292;544901;-77
2023/10/28 04:44:24;;;;;;;5.90;1.90;;;;;;;;;;103362;1295;544875;-78
2023/10/28 04:48:01;;;;;;;4.90;2.00;;;;;;;;;;103756;1292;544945;-80
2023/10/28 04:51:44;;;;;;;5.10;2.30;;;;;;;;;;103513;1295;548229;-77
2023/10/28 04:55:12;;;;;;;5.90;2.20;;;;;;;;;;103904;1289;545609;-77
2023/10/28 04:58:55;;;;;;;5.60;2.00;;;;;;;;;;103788;1291;545046;-77
2023/10/28 05:02:34;;;;;;;5.90;2.00;;;;;;;;;;104093;1288;544921;-77
2023/10/28 05:06:11;;;;;;;5.00;2.30;;;;;;;;;;103809;1292;545011;-77
2023/10/28 05:09:48;;;;;;;6.30;2.30;;;;;;;;;;103759;1292;544780;-78
2023/10/28 05:13:25;;;;;;;6.30;2.60;;;;;;;;;;103807;1289;544905;-76
2023/10/28 05:17:03;;;;;;;7.80;3.70;;;;;;;;;;103761;1292;545142;-77
2023/10/28 05:20:46;;;;;;;8.00;3.20;;;;;;;;;;103687;1292;547976;-78
2023/10/28 05:24:18;;;;;;;7.00;2.70;;;;;;;;;;103668;1294;544862;-77
2023/10/28 05:27:56;;;;;;;5.40;2.70;;;;;;;;;;103596;1291;544847;-77
2023/10/28 05:31:38;;;;;;;6.20;2.70;;;;;;;;;;103594;1292;546201;-77
2023/10/28 05:35:11;;;;;;;6.30;2.60;;;;;;;;;;103753;1292;545752;-77
2023/10/28 05:38:48;;;;;;;6.80;2.90;;;;;;;;;;103707;1289;544995;-77
2023/10/28 05:42:21;;;;;;;6.60;3.50;;;;;;;;;;103728;1290;545715;-79
2023/10/28 05:46:02;;;;;;;7.80;3.10;;;;;;;;;;103846;1288;544950;-76
2023/10/28 05:49:42;;;;;;;7.30;2.80;;;;;;;;;;103765;1291;544989;-77
2023/10/28 05:53:17;;;;;;;7.00;2.80;;;;;;;;;;103835;1288;545558;-77
2023/10/28 05:56:54;;;;;;;6.80;2.90;;;;;;;;;;103835;1290;544731;-77
2023/10/28 06:00:33;;;;;;;6.40;2.90;;;;;;;;;;103839;1291;545875;-80
2023/10/28 06:04:10;;;;;;;7.20;3.00;;;;;;;;;;103762;1294;544971;-77
2023/10/28 06:07:49;;;;;;;6.90;3.20;;;;;;;;;;103583;1293;545021;-76
2023/10/28 06:11:24;;;;;;;7.00;3.00;;;;;;;;;;103770;1290;545925;-76
2023/10/28 06:15:03;;;;;;;6.90;3.10;;;;;;;;;;104419;1289;545020;-77
2023/10/28 06:18:37;;;;;;;6.30;2.60;;;;;;;;;;103862;1289;544911;-76
2023/10/28 06:22:17;;;;;;;5.90;2.80;;;;;;;;;;103739;1291;545034;-76
2023/10/28 06:25:55;;;;;;;6.50;2.90;;;;;;;;;;103757;1291;545099;-78
2023/10/28 06:29:37;;;;;;;7.60;3.00;;;;;;;;;;103573;1292;546871;-77
2023/10/28 06:33:15;;;;;;;6.30;3.00;;;;;;;;;;103581;1292;547877;-77
2023/10/28 06:36:46;;;;;;;7.50;2.90;;;;;;;;;;103796;1296;545728;-78
2023/10/28 06:40:28;;;;;;;7.10;2.80;;;;;;;;;;104031;1289;544923;-77
2023/10/28 06:44:05;;;;;;;7.30;3.30;;;;;;;;;;104674;1285;545780;-77
2023/10/28 06:47:40;;;;;;;10.10;4.30;;;;;;;;;;103666;1292;545048;-78
2023/10/28 06:51:16;;;;;;;9.20;4.50;;;;;;;;;;103752;1292;544959;-77
2023/10/28 06:54:55;;;;;;;12.00;5.10;;;;;;;;;;103817;1302;544789;-77
2023/10/28 06:58:32;;;;;;;10.00;5.00;;;;;;;;;;103759;1289;545302;-78
2023/10/28 07:02:10;;;;;;;7.90;3.30;;;;;;;;;;103707;1291;545429;-78
2023/10/28 07:05:45;;;;;;;5.90;2.50;;;;;;;;;;103786;1292;545279;-77
2023/10/28 07:09:28;;;;;;;7.10;2.50;;;;;;;;;;103806;1291;545662;-78
2023/10/28 07:13:06;;;;;;;7.40;2.70;;;;;;;;;;103768;1289;544812;-77
2023/10/28 07:16:43;;;;;;;8.20;3.60;;;;;;;;;;103724;1291;545943;-77
2023/10/28 07:20:21;;;;;;;7.20;2.50;;;;;;;;;;103836;1292;544963;-76
2023/10/28 07:24:00;;;;;;;6.60;2.80;;;;;;;;;;103722;1291;545039;-78
2023/10/28 07:27:36;;;;;;;6.90;2.70;;;;;;;;;;103783;1289;545691;-77
2023/10/28 07:31:15;;;;;;;7.60;3.20;;;;;;;;;;103603;1289;544740;-77
2023/10/28 07:34:47;;;;;;;10.70;4.00;;;;;;;;;;104352;1286;544868;-77
2023/10/28 07:38:24;;;;;;;7.70;4.00;;;;;;;;;;104055;1289;544764;-77
2023/10/28 07:42:08;;;;;;;7.90;3.30;;;;;;;;;;103718;1290;544943;-77
2023/10/28 07:45:48;;;;;;;7.20;4.10;;;;;;;;;;103678;1291;545600;-77
2023/10/28 07:49:23;;;;;;;8.20;4.60;;;;;;;;;;103691;1292;545591;-77
2023/10/28 07:53:00;;;;;;;9.30;5.00;;;;;;;;;;104108;1289;544980;-77
2023/10/28 07:56:37;;;;;;;9.40;4.40;;;;;;;;;;103713;1292;544694;-77
2023/10/28 08:00:15;;;;;;;9.00;4.30;;;;;;;;;;103762;1292;545018;-77
2023/10/28 08:03:53;;;;;;;11.60;4.50;;;;;;;;;;103899;1288;545009;-76
2023/10/28 08:07:30;;;;;;;10.30;5.10;;;;;;;;;;103766;1292;544841;-76
2023/10/28 08:11:08;;;;;;;8.40;4.20;;;;;;;;;;103843;1289;546495;-78
2023/10/28 08:14:48;;;;;;;6.90;3.10;;;;;;;;;;103748;1290;545374;-77
2023/10/28 08:18:22;;;;;;;6.20;2.70;;;;;;;;;;103455;1294;545063;-77
2023/10/28 08:22:00;;;;;;;5.60;2.60;;;;;;;;;;103755;1292;546034;-77
2023/10/28 08:25:37;;;;;;;7.90;2.70;;;;;;;;;;103755;1291;545033;-78
2023/10/28 08:29:14;;;;;;;6.20;2.30;;;;;;;;;;103695;1294;544782;-77
2023/10/28 08:32:52;;;;;;;4.40;2.00;;;;;;;;;;103697;1292;545082;-78
2023/10/28 08:36:30;;;;;;;6.10;2.00;;;;;;;;;;104020;1289;545149;-78
2023/10/28 08:40:10;;;;;;;4.90;2.00;;;;;;;;;;103760;1289;545345;-78
2023/10/28 08:43:45;;;;;;;5.80;1.80;;;;;;;;;;103872;1288;545649;-78
2023/10/28 08:47:25;;;;;;;3.50;1.50;;;;;;;;;;103803;1295;544941;-77
2023/10/28 08:51:00;;;;;;;5.50;1.60;;;;;;;;;;103730;1289;545493;-77
2023/10/28 08:54:38;;;;;;;4.10;1.80;;;;;;;;;;103788;1295;544759;-76
2023/10/28 08:58:16;;;;;;;3.50;1.70;;;;;;;;;;103778;1289;545763;-78
2023/10/28 09:01:52;;;;;;;5.90;1.30;;;;;;;;;;103879;1289;544784;-76
2023/10/28 09:05:29;;;;;;;3.90;1.20;;;;;;;;;;104049;1289;544962;-77
2023/10/28 09:09:12;;;;;;;3.70;1.30;;;;;;;;;;103692;1292;545164;-77
2023/10/28 09:12:44;;;;;;;4.20;1.20;;;;;;;;;;103738;1289;545015;-77
2023/10/28 09:16:24;;;;;;;2.00;0.90;;;;;;;;;;103781;1291;545099;-75
2023/10/28 09:19:56;;;;;;;4.10;1.10;;;;;;;;;;104003;1289;544929;-78
2023/10/28 09:23:37;;;;;;;4.80;1.20;;;;;;;;;;104029;1289;544871;-76
2023/10/28 09:27:14;;;;;;;3.30;1.20;;;;;;;;;;103913;1292;544809;-76
2023/10/28 09:30:51;;;;;;;5.10;1.90;;;;;;;;;;103741;1302;545411;-77
2023/10/28 09:34:29;;;;;;;3.60;1.60;;;;;;;;;;103751;1291;544821;-76
2023/10/28 09:38:07;;;;;;;5.90;2.40;;;;;;;;;;103744;1295;545621;-77
2023/10/28 09:41:44;;;;;;;6.60;3.20;;;;;;;;;;103947;1289;544730;-76
2023/10/28 09:45:22;;;;;;;5.40;2.20;;;;;;;;;;103817;1294;544761;-76
2023/10/28 09:49:03;;;;;;;6.30;2.30;;;;;;;;;;103799;1294;545001;-77
2023/10/28 09:52:38;;;;;;;5.30;1.40;;;;;;;;;;103870;1301;545042;-76
2023/10/28 09:56:15;;;;;;;4.50;1.50;;;;;;;;;;103733;1289;545755;-78
2023/10/28 09:59:52;;;;;;;4.60;1.40;;;;;;;;;;103854;1292;544934;-76
2023/10/28 10:03:28;;;;;;;5.00;1.50;;;;;;;;;;104028;1290;544760;-77
2023/10/28 10:07:11;;;;;;;3.50;1.20;;;;;;;;;;104082;1292;544731;-78
2023/10/28 10:10:49;;;;;;;3.90;1.40;;;;;;;;;;103727;1290;545026;-76
2023/10/28 10:14:29;;;;;;;3.40;1.00;;;;;;;;;;103777;1291;545044;-76
2023/10/28 10:18:11;;;;;;;3.20;1.10;;;;;;;;;;103824;1291;544918;-76
2023/10/28 10:21:48;;;;;;;2.90;1.10;;;;;;;;;;103779;1291;545994;-77
2023/10/28 10:25:29;;;;;;;4.90;1.50;;;;;;;;;;103753;1289;544973;-76
2023/10/28 10:28:58;;;;;;;3.30;1.20;;;;;;;;;;103663;1292;545586;-78
2023/10/28 10:32:47;;;;;;;2.80;1.00;;;;;;;;;;103745;1290;545038;-78
2023/10/28 10:36:17;;;;;;;5.10;1.70;;;;;;;;;;103780;1291;545431;-77
2023/10/28 10:40:06;;;;;;;3.80;1.90;;;;;;;;;;103938;1290;544906;-75
2023/10/28 10:43:37;;;;;;;2.40;1.00;;;;;;;;;;103870;1296;546021;-76
2023/10/28 10:47:17;;;;;;;3.60;1.10;;;;;;;;;;103790;1288;544867;-75
2023/10/28 10:50:57;;;;;;;2.40;1.20;;;;;;;;;;103798;1291;544895;-76
2023/10/28 10:54:34;;;;;;;4.10;1.60;;;;;;;;;;103706;1289;545088;-76
2023/10/28 10:58:07;;;;;;;9.00;2.90;;;;;;;;;;103844;1288;544799;-76
2023/10/28 11:01:46;;;;;;;7.20;2.50;;;;;;;;;;103898;1301;545646;-76
2023/10/28 11:05:23;;;;;;;5.20;1.40;;;;;;;;;;103732;1294;544937;-76
2023/10/28 11:09:01;;;;;;;3.80;1.40;;;;;;;;;;103935;1288;544794;-76
2023/10/28 11:12:38;;;;;;;4.90;1.50;;;;;;;;;;104179;1298;544989;-77
2023/10/28 11:16:22;;;;;;;4.80;1.80;;;;;;;;;;103690;1291;544978;-75
2023/10/28 11:19:53;;;;;;;6.20;2.30;;;;;;;;;;103750;1289;544993;-76
2023/10/28 11:23:31;;;;;;;3.80;1.50;;;;;;;;;;103766;1292;545354;-75
2023/10/28 11:27:08;;;;;;;4.10;1.40;;;;;;;;;;103761;1292;544940;-76
2023/10/28 11:30:50;;;;;;;3.60;1.30;;;;;;;;;;103713;1292;545012;-75
2023/10/28 11:34:23;;;;;;;4.30;1.20;;;;;;;;;;103760;1295;546223;-75
2023/10/28 11:38:03;;;;;;;5.70;1.50;;;;;;;;;;103713;1291;545012;-76
2023/10/28 11:41:38;;;;;;;4.30;1.20;;;;;;;;;;103760;1289;545014;-77
2023/10/28 11:45:16;;;;;;;3.60;1.00;;;;;;;;;;103784;1292;545758;-75
2023/10/28 11:48:53;;;;;;;4.10;1.20;;;;;;;;;;103700;1292;545762;-75
2023/10/28 11:52:30;;;;;;;5.90;1.80;;;;;;;;;;103730;1289;544723;-75
2023/10/28 11:56:09;;;;;;;5.40;2.10;;;;;;;;;;103723;1289;545007;-75
2023/10/28 11:59:45;;;;;;;5.10;2.30;;;;;;;;;;103703;1291;544903;-76
2023/10/28 12:03:23;;;;;;;5.70;2.40;;;;;;;;;;103759;1291;545838;-76
2023/10/28 12:07:00;;;;;;;6.40;2.50;;;;;;;;;;103737;1289;545430;-76
2023/10/28 12:10:43;;;;;;;6.10;1.70;;;;;;;;;;103795;1289;544862;-75
2023/10/28 12:14:15;;;;;;;6.40;2.10;;;;;;;;;;103744;1291;544784;-75
2023/10/28 12:17:53;;;;;;;8.80;4.30;;;;;;;;;;103743;1292;544792;-75
2023/10/28 12:21:30;;;;;;;9.30;3.50;;;;;;;;;;103775;1292;545560;-75
2023/10/28 12:25:03;;;;;;;7.60;3.70;;;;;;;;;;104211;1291;545598;-75
2023/10/28 12:28:49;;;;;;;9.00;4.00;;;;;;;;;;103866;1292;545154;-74
2023/10/28 12:32:23;;;;;;;5.70;2.00;;;;;;;;;;103788;1292;545160;-75
2023/10/28 12:36:02;;;;;;;4.80;1.90;;;;;;;;;;103705;1290;545615;-76
2023/10/28 12:39:38;;;;;;;6.20;2.30;;;;;;;;;;103857;1292;545548;-76
2023/10/28 12:43:16;;;;;;;5.50;1.70;;;;;;;;;;103908;1293;544810;-75
2023/10/28 12:46:54;;;;;;;3.90;1.40;;;;;;;;;;103806;1290;545406;-76
2023/10/28 12:50:31;;;;;;;4.40;1.90;;;;;;;;;;103746;1291;544754;-76
2023/10/28 12:54:09;;;;;;;4.50;1.60;;;;;;;;;;103693;1302;544870;-75
2023/10/28 12:57:46;;;;;;;5.30;1.80;;;;;;;;;;103816;1292;544846;-75
2023/10/28 13:01:27;;;;;;;4.20;1.40;;;;;;;;;;103846;1288;544875;-76
2023/10/28 13:05:01;;;;;;;4.40;1.70;;;;;;;;;;103781;1289;545543;-78
2023/10/28 13:08:38;;;;;;;6.90;2.90;;;;;;;;;;103711;1295;544978;-76
2023/10/28 13:12:16;;;;;;;5.00;2.00;;;;;;;;;;103732;1289;546296;-75
2023/10/28 13:15:53;;;;;;;9.30;2.70;;;;;;;;;;103716;1290;544943;-76
2023/10/28 13:19:31;;;;;;;8.40;2.90;;;;;;;;;;103715;1296;546464;-75
2023/10/28 13:23:11;;;;;;;5.30;2.30;;;;;;;;;;103871;1291;545943;-75
2023/10/28 13:26:47;;;;;;;6.10;2.30;;;;;;;;;;103712;1289;545454;-78
2023/10/28 13:30:24;;;;;;;7.90;3.40;;;;;;;;;;103733;1291;545069;-75
2023/10/28 13:33:57;;;;;;;9.50;3.60;;;;;;;;;;103822;1292;545298;-75
2023/10/28 13:37:38;;;;;;;8.50;3.30;;;;;;;;;;103754;1292;545353;-75
2023/10/28 13:41:12;;;;;;;12.80;5.80;;;;;;;;;;103892;1288;544782;-75
2023/10/28 13:44:53;;;;;;;12.60;6.80;;;;;;;;;;103740;1293;545193;-75
2023/10/28 13:48:31;;;;;;;11.30;6.40;;;;;;;;;;103738;1292;545794;-75
2023/10/28 13:52:08;;;;;;;8.30;4.30;;;;;;;;;;103798;1290;544990;-76
2023/10/28 13:55:42;;;;;;;8.10;3.40;;;;;;;;;;103803;1301;544970;-75
2023/10/28 13:59:23;;;;;;;8.20;3.00;;;;;;;;;;103596;1291;545133;-75
2023/10/28 14:03:01;;;;;;;5.00;1.80;;;;;;;;;;103769;1291;544875;-75
2023/10/28 14:06:34;;;;;;;6.20;2.50;;;;;;;;;;104111;1289;544943;-75
2023/10/28 14:10:15;;;;;;;5.80;2.10;;;;;;;;;;103737;1292;544727;-75
2023/10/28 14:13:53;;;;;;;4.30;1.90;;;;;;;;;;103820;1292;545083;-75
2023/10/28 14:17:31;;;;;;;4.70;1.70;;;;;;;;;;103733;1291;545547;-75
2023/10/28 14:21:08;;;;;;;4.90;1.80;;;;;;;;;;103850;1291;545092;-75
2023/10/28 14:24:45;;;;;;;4.50;1.80;;;;;;;;;;103683;1292;545186;-75
2023/10/28 14:28:42;;;;;;;6.10;2.30;;;;;;;;;;103528;1289;548000;-76
2023/10/28 14:32:00;;;;;;;8.50;3.80;;;;;;;;;;103825;1291;545947;-76
2023/10/28 14:35:38;;;;;;;10.60;5.90;;;;;;;;;;104609;1282;545517;-74
2023/10/28 14:39:11;;;;;;;9.80;6.10;;;;;;;;;;103859;1289;545524;-75
2023/10/28 14:42:52;;;;;;;11.10;6.40;;;;;;;;;;103580;1295;545487;-74
2023/10/28 14:46:30;;;;;;;8.80;4.40;;;;;;;;;;103715;1294;544673;-76
2023/10/28 14:50:08;;;;;;;10.80;6.00;;;;;;;;;;103707;1291;545053;-75
2023/10/28 14:53:45;;;;;;;11.30;5.80;;;;;;;;;;103735;1291;545065;-76
2023/10/28 14:57:22;;;;;;;11.50;6.40;;;;;;;;;;103641;1295;545063;-75
2023/10/28 15:01:05;;;;;;;12.00;5.90;;;;;;;;;;103720;1291;545639;-74
2023/10/28 15:04:38;;;;;;;10.50;5.20;;;;;;;;;;103712;1291;544788;-75
2023/10/28 15:08:15;;;;;;;14.30;6.20;;;;;;;;;;103887;1294;544773;-74
2023/10/28 15:11:52;;;;;;;11.00;5.40;;;;;;;;;;103758;1290;544938;-76
2023/10/28 15:15:34;;;;;;;11.00;5.00;;;;;;;;;;103747;1292;544949;-75
2023/10/28 15:19:09;;;;;;;11.90;5.40;;;;;;;;;;103797;1294;545152;-75
2023/10/28 15:22:45;;;;;;;12.30;6.50;;;;;;;;;;104036;1289;545057;-74
2023/10/28 15:26:24;;;;;;;12.30;6.90;;;;;;;;;;104107;1288;545092;-75
2023/10/28 15:30:00;;;;;;;13.00;7.50;;;;;;;;;;103723;1292;544733;-75
2023/10/28 15:33:38;;;;;;;14.90;9.30;;;;;;;;;;103798;1294;546176;-74
2023/10/28 15:37:11;;;;;;;15.40;9.00;;;;;;;;;;103974;1288;544799;-75
2023/10/28 15:40:57;;;;;;;16.10;9.90;;;;;;;;;;103868;1292;545652;-75
2023/10/28 15:44:26;;;;;;;17.20;11.80;;;;;;;;;;104521;1289;545774;-74
2023/10/28 15:48:08;;;;;;;14.60;9.20;;;;;;;;;;103787;1291;545028;-74
2023/10/28 15:51:44;;;;;;;14.90;9.30;;;;;;;;;;103902;1292;545071;-74
2023/10/28 15:55:22;;;;;;;16.50;10.20;;;;;;;;;;103858;1292;545048;-74
2023/10/28 15:58:59;;;;;;;17.30;9.70;;;;;;;;;;103737;1291;545022;-74
2023/10/28 16:02:37;;;;;;;16.90;10.60;;;;;;;;;;103656;1291;546218;-74
2023/10/28 16:06:14;;;;;;;17.00;9.80;;;;;;;;;;103821;1292;544775;-74
2023/10/28 16:09:53;;;;;;;20.10;12.90;;;;;;;;;;103719;1291;544835;-74
2023/10/28 16:13:29;;;;;;;18.40;12.10;;;;;;;;;;103765;1292;544854;-74
2023/10/28 16:17:09;;;;;;;18.80;11.60;;;;;;;;;;104156;1285;544853;-74
2023/10/28 16:20:44;;;;;;;17.60;11.10;;;;;;;;;;103698;1295;544819;-74
2023/10/28 16:24:21;;;;;;;18.50;10.60;;;;;;;;;;103727;1292;544751;-74
2023/10/28 16:27:59;;;;;;;15.60;9.70;;;;;;;;;;103785;1291;545258;-74
2023/10/28 16:31:36;;;;;;;15.40;9.30;;;;;;;;;;103815;1292;545811;-74
2023/10/28 16:35:11;;;;;;;16.90;11.00;;;;;;;;;;103752;1292;545375;-74
2023/10/28 16:38:51;;;;;;;24.00;15.70;;;;;;;;;;103791;1288;545022;-74
2023/10/28 16:42:29;;;;;;;30.00;20.00;;;;;;;;;;103756;1292;545093;-74
2023/10/28 16:46:06;;;;;;;27.10;17.00;;;;;;;;;;103605;1292;545454;-74
2023/10/28 16:49:44;;;;;;;33.00;22.80;;;;;;;;;;103792;1291;546201;-74
2023/10/28 16:53:24;;;;;;;30.60;20.90;;;;;;;;;;104569;1293;545338;-74
2023/10/28 16:56:59;;;;;;;27.20;17.50;;;;;;;;;;103955;1288;545278;-74
2023/10/28 17:00:37;;;;;;;23.70;14.70;;;;;;;;;;103771;1293;545063;-74
2023/10/28 17:04:14;;;;;;;20.90;12.80;;;;;;;;;;103825;1289;544927;-74
2023/10/28 17:07:50;;;;;;;20.50;12.50;;;;;;;;;;103730;1290;544720;-75
2023/10/28 17:11:25;;;;;;;16.90;10.40;;;;;;;;;;104247;1289;546378;-76
2023/10/28 17:15:05;;;;;;;15.70;9.50;;;;;;;;;;103968;1289;544926;-74
2023/10/28 17:18:49;;;;;;;15.20;9.40;;;;;;;;;;103769;1289;545406;-74
2023/10/28 17:22:26;;;;;;;18.10;10.10;;;;;;;;;;103723;1291;544897;-74
2023/10/28 17:26:05;;;;;;;17.50;10.80;;;;;;;;;;103913;1289;544832;-74
2023/10/28 17:29:43;;;;;;;28.10;14.50;;;;;;;;;;103696;1291;545551;-74
2023/10/28 17:33:18;;;;;;;28.50;14.70;;;;;;;;;;103774;1291;544931;-76
2023/10/28 17:36:57;;;;;;;27.50;14.50;;;;;;;;;;103745;1290;545191;-74
2023/10/28 17:40:33;;;;;;;25.10;13.40;;;;;;;;;;103622;1291;545394;-74
2023/10/28 17:44:10;;;;;;;25.10;12.90;;;;;;;;;;103856;1291;544825;-75
2023/10/28 17:47:44;;;;;;;18.20;10.20;;;;;;;;;;103948;1292;545980;-74
2023/10/28 17:51:29;;;;;;;15.10;7.60;;;;;;;;;;103819;1292;545007;-75
2023/10/28 17:55:05;;;;;;;14.00;7.30;;;;;;;;;;103772;1291;546104;-74
2023/10/28 17:58:44;;;;;;;13.90;7.00;;;;;;;;;;103775;1292;546009;-74
2023/10/28 18:02:21;;;;;;;13.90;6.50;;;;;;;;;;103720;1292;545054;-76
2023/10/28 18:06:00;;;;;;;14.50;8.00;;;;;;;;;;103667;1289;544846;-74
2023/10/28 18:09:34;;;;;;;12.40;6.60;;;;;;;;;;103955;1289;546070;-74
2023/10/28 18:13:12;;;;;;;11.50;5.70;;;;;;;;;;103709;1289;544991;-74
2023/10/28 18:16:50;;;;;;;11.00;5.70;;;;;;;;;;104047;1288;544823;-75
2023/10/28 18:20:27;;;;;;;11.50;6.10;;;;;;;;;;103684;1289;544783;-74
2023/10/28 18:24:06;;;;;;;11.90;6.50;;;;;;;;;;103932;1294;545401;-74
2023/10/28 18:27:38;;;;;;;15.00;7.60;;;;;;;;;;103605;1293;545433;-75
2023/10/28 18:31:22;;;;;;;12.00;6.40;;;;;;;;;;103708;1291;544858;-76
2023/10/28 18:34:57;;;;;;;11.70;6.00;;;;;;;;;;103868;1288;544992;-74
2023/10/28 18:38:31;;;;;;;15.70;7.60;;;;;;;;;;103763;1292;544986;-74
2023/10/28 18:42:11;;;;;;;14.30;7.20;;;;;;;;;;103746;1294;544818;-74
2023/10/28 18:46:00;;;;;;;20.60;5.70;;;;;;;;;;103469;1294;547945;-74
2023/10/28 18:49:28;;;;;;;9.20;4.40;;;;;;;;;;103715;1291;546142;-74
2023/10/28 18:53:04;;;;;;;10.90;5.00;;;;;;;;;;104051;1292;545304;-74
2023/10/28 18:56:42;;;;;;;19.20;9.60;;;;;;;;;;103828;1289;544977;-74
2023/10/28 19:00:19;;;;;;;18.80;9.40;;;;;;;;;;103734;1291;545260;-75
2023/10/28 19:03:56;;;;;;;16.10;9.90;;;;;;;;;;103892;1290;545686;-75
2023/10/28 19:07:34;;;;;;;16.30;7.60;;;;;;;;;;103837;1292;545795;-74
2023/10/28 19:11:11;;;;;;;15.10;6.90;;;;;;;;;;103903;1290;546022;-75
2023/10/28 19:14:49;;;;;;;17.80;8.60;;;;;;;;;;103641;1292;545001;-76
2023/10/28 19:18:26;;;;;;;15.60;6.50;;;;;;;;;;103878;1289;544930;-76
2023/10/28 19:22:04;;;;;;;11.40;5.10;;;;;;;;;;103780;1292;545939;-74
2023/10/28 19:25:38;;;;;;;10.90;5.40;;;;;;;;;;103819;1290;545026;-74
2023/10/28 19:29:18;;;;;;;11.20;5.20;;;;;;;;;;103794;1289;545245;-75
2023/10/28 19:32:52;;;;;;;10.70;5.50;;;;;;;;;;103795;1301;545291;-75
2023/10/28 19:36:35;;;;;;;9.80;4.00;;;;;;;;;;103940;1290;544827;-75
2023/10/28 19:40:13;;;;;;;7.90;3.70;;;;;;;;;;103809;1292;544800;-75
2023/10/28 19:43:49;;;;;;;10.30;3.50;;;;;;;;;;103727;1292;544735;-75
2023/10/28 19:47:26;;;;;;;9.20;3.00;;;;;;;;;;103959;1289;544985;-75
2023/10/28 19:51:07;;;;;;;8.10;3.20;;;;;;;;;;103833;1291;545056;-75
2023/10/28 19:54:41;;;;;;;6.80;3.00;;;;;;;;;;103915;1288;544966;-74
2023/10/28 19:58:40;;;;;;;9.10;4.30;;;;;;;;;;103618;1294;546481;-77
2023/10/28 20:01:56;;;;;;;7.70;3.70;;;;;;;;;;103812;1294;546380;-74
2023/10/28 20:05:33;;;;;;;9.30;4.10;;;;;;;;;;103767;1292;544921;-75
2023/10/28 20:09:14;;;;;;;10.20;4.00;;;;;;;;;;104416;1285;545008;-75
2023/10/28 20:12:51;;;;;;;8.90;4.00;;;;;;;;;;103786;1302;545063;-75
2023/10/28 20:16:22;;;;;;;10.00;3.50;;;;;;;;;;103954;1289;545746;-75
2023/10/28 20:20:04;;;;;;;11.60;4.40;;;;;;;;;;103775;1292;544975;-75
2023/10/28 20:23:41;;;;;;;9.20;4.20;;;;;;;;;;104043;1293;544720;-75
2023/10/28 20:27:18;;;;;;;9.40;4.00;;;;;;;;;;103731;1292;544810;-76
2023/10/28 20:31:00;;;;;;;8.50;3.90;;;;;;;;;;103743;1292;545989;-75
2023/10/28 20:34:33;;;;;;;8.30;4.10;;;;;;;;;;103854;1292;545048;-76
2023/10/28 20:38:11;;;;;;;8.50;4.20;;;;;;;;;;104139;1286;545476;-75
2023/10/28 20:41:48;;;;;;;11.00;5.60;;;;;;;;;;103900;1289;545442;-75
2023/10/28 20:45:26;;;;;;;12.10;7.00;;;;;;;;;;103831;1289;545057;-74
2023/10/28 20:49:05;;;;;;;13.70;7.40;;;;;;;;;;103719;1291;544729;-75
2023/10/28 20:52:41;;;;;;;16.20;8.40;;;;;;;;;;103691;1291;544863;-75
2023/10/28 20:56:18;;;;;;;15.30;7.80;;;;;;;;;;103799;1289;545476;-75